sensor_id;sensor_type;location;lat;lon;timestamp;pressure;altitude;pressure_sealevel;temperature;humidity
42705;BME280;28342;42.594;23.414;2022-07-29T09:01:44;94693.91;;;30.14;43.76
42705;BME280;28342;42.594;23.414;2022-07-29T12:13:05;94555.59;;;32.64;30.86
42705;BME280;28342;42.594;23.414;2022-07-29T19:27:08;94559.13;;;24.13;54.31
42705;BME280;28342;42.594;23.414;2022-07-29T19:30:22;94551.03;;;24.06;53.81
42705;BME280;28342;42.594;23.414;2022-07-29T19:32:53;94600.53;;;24.39;54.89
42705;BME280;28342;42.594;23.414;2022-07-29T19:35:24;94588.50;;;24.33;55.77
42705;BME280;28342;42.594;23.414;2022-07-29T19:37:59;94579.66;;;24.14;55.17
42705;BME280;28342;42.594;23.414;2022-07-29T19:43:33;94603.63;;;24.20;56.15
42705;BME280;28342;42.594;23.414;2022-07-29T19:46:45;94575.84;;;23.83;56.23
42705;BME280;28342;42.594;23.414;2022-07-29T19:49:42;94570.41;;;23.87;56.25
42705;BME280;28342;42.594;23.414;2022-07-29T19:52:10;94567.31;;;23.85;57.09
42705;BME280;28342;42.594;23.414;2022-07-29T19:54:42;94582.78;;;23.88;56.07
42705;BME280;28342;42.594;23.414;2022-07-29T19:57:09;94600.59;;;23.89;57.02
42705;BME280;28342;42.594;23.414;2022-07-29T19:59:35;94561.16;;;23.67;57.04
42705;BME280;28342;42.594;23.414;2022-07-29T20:02:00;94594.41;;;23.85;56.99
42705;BME280;28342;42.594;23.414;2022-07-29T20:04:26;94588.22;;;23.81;57.01
42705;BME280;28342;42.594;23.414;2022-07-29T20:06:51;94582.06;;;23.77;56.79
42705;BME280;28342;42.594;23.414;2022-07-29T20:09:20;94571.22;;;23.66;57.09
42705;BME280;28342;42.594;23.414;2022-07-29T20:11:46;94599.06;;;23.77;57.16
42705;BME280;28342;42.594;23.414;2022-07-29T20:14:12;94571.19;;;23.55;57.62
42705;BME280;28342;42.594;23.414;2022-07-29T20:16:37;94577.38;;;23.56;57.65
42705;BME280;28342;42.594;23.414;2022-07-29T20:19:03;94556.13;;;23.40;56.77
42705;BME280;28342;42.594;23.414;2022-07-29T20:21:28;94568.13;;;23.36;57.45
42705;BME280;28342;42.594;23.414;2022-07-29T20:23:57;94585.91;;;23.40;58.07
42705;BME280;28342;42.594;23.414;2022-07-29T20:26:24;94587.06;;;23.46;58.59
42705;BME280;28342;42.594;23.414;2022-07-29T20:28:50;94585.91;;;23.37;58.18
42705;BME280;28342;42.594;23.414;2022-07-29T20:31:16;94599.84;;;23.49;58.32
42705;BME280;28342;42.594;23.414;2022-07-29T20:33:43;94589.00;;;23.28;58.54
42705;BME280;28342;42.594;23.414;2022-07-29T20:36:10;94594.41;;;23.28;58.10
42705;BME280;28342;42.594;23.414;2022-07-29T20:38:36;94587.44;;;23.20;57.73
42705;BME280;28342;42.594;23.414;2022-07-29T20:41:03;94598.66;;;23.18;57.88
42705;BME280;28342;42.594;23.414;2022-07-29T20:43:29;94610.63;;;23.24;57.43
42705;BME280;28342;42.594;23.414;2022-07-29T20:45:55;94592.06;;;23.09;57.68
42705;BME280;28342;42.594;23.414;2022-07-29T20:48:23;94587.03;;;23.07;56.25
42705;BME280;28342;42.594;23.414;2022-07-29T20:50:49;94601.75;;;23.13;57.51
42705;BME280;28342;42.594;23.414;2022-07-29T20:53:16;94620.28;;;23.08;58.07
42705;BME280;28342;42.594;23.414;2022-07-29T20:56:18;94625.28;;;22.99;58.67
42705;BME280;28342;42.594;23.414;2022-07-29T20:58:46;94628.00;;;23.06;58.95
42705;BME280;28342;42.594;23.414;2022-07-29T21:01:12;94573.41;;;22.72;59.29
42705;BME280;28342;42.594;23.414;2022-07-29T21:04:00;94605.47;;;22.73;59.45
42705;BME280;28342;42.594;23.414;2022-07-29T21:06:32;94598.50;;;22.65;59.85
42705;BME280;28342;42.594;23.414;2022-07-29T21:09:11;94611.25;;;22.68;58.31
42705;BME280;28342;42.594;23.414;2022-07-29T21:11:40;94578.72;;;22.47;57.77
42705;BME280;28342;42.594;23.414;2022-07-29T21:14:07;94587.22;;;22.49;58.51
42705;BME280;28342;42.594;23.414;2022-07-29T21:16:36;94612.78;;;22.62;59.19
42705;BME280;28342;42.594;23.414;2022-07-29T21:19:04;94622.81;;;22.61;57.56
42705;BME280;28342;42.594;23.414;2022-07-29T21:21:29;94609.66;;;22.53;58.16
42705;BME280;28342;42.594;23.414;2022-07-29T21:24:20;94601.91;;;22.48;59.13
42705;BME280;28342;42.594;23.414;2022-07-29T21:26:45;94623.53;;;22.51;59.67
42705;BME280;28342;42.594;23.414;2022-07-29T21:29:11;94603.44;;;22.38;58.58
42705;BME280;28342;42.594;23.414;2022-07-29T21:31:44;94612.31;;;22.46;59.76
42705;BME280;28342;42.594;23.414;2022-07-29T21:34:18;94603.38;;;22.27;61.66
42705;BME280;28342;42.594;23.414;2022-07-29T21:36:44;94625.44;;;22.40;61.98
42705;BME280;28342;42.594;23.414;2022-07-29T21:39:11;94607.97;;;22.23;60.92
42705;BME280;28342;42.594;23.414;2022-07-29T21:42:01;94598.66;;;22.14;61.05
42705;BME280;28342;42.594;23.414;2022-07-29T21:44:29;94613.78;;;22.29;61.19
42705;BME280;28342;42.594;23.414;2022-07-29T21:47:07;94629.22;;;22.25;62.27
42705;BME280;28342;42.594;23.414;2022-07-29T21:49:45;94595.06;;;21.99;62.36
42705;BME280;28342;42.594;23.414;2022-07-29T21:52:11;94605.50;;;22.04;63.00
42705;BME280;28342;42.594;23.414;2022-07-29T21:54:41;94610.50;;;21.98;63.39
42705;BME280;28342;42.594;23.414;2022-07-29T21:57:12;94594.22;;;21.88;63.05
42705;BME280;28342;42.594;23.414;2022-07-29T21:59:48;94597.69;;;21.88;63.56
42705;BME280;28342;42.594;23.414;2022-07-29T22:02:14;94593.84;;;21.86;63.63
42705;BME280;28342;42.594;23.414;2022-07-29T22:04:43;94601.91;;;21.78;64.23
42705;BME280;28342;42.594;23.414;2022-07-29T22:07:12;94575.97;;;21.63;64.56
42705;BME280;28342;42.594;23.414;2022-07-29T22:09:40;94601.44;;;21.69;65.14
42705;BME280;28342;42.594;23.414;2022-07-29T22:12:14;94597.47;;;21.53;65.34
42705;BME280;28342;42.594;23.414;2022-07-29T22:14:45;94602.03;;;21.45;66.17
42705;BME280;28342;42.594;23.414;2022-07-29T22:17:16;94581.50;;;21.30;65.76
42705;BME280;28342;42.594;23.414;2022-07-29T22:19:44;94615.56;;;21.48;65.64
42705;BME280;28342;42.594;23.414;2022-07-29T22:22:13;94598.09;;;21.35;66.00
42705;BME280;28342;42.594;23.414;2022-07-29T22:24:38;94617.41;;;21.41;66.49
42705;BME280;28342;42.594;23.414;2022-07-29T22:27:04;94622.00;;;21.37;66.63
42705;BME280;28342;42.594;23.414;2022-07-29T22:29:30;94611.56;;;21.32;66.78
42705;BME280;28342;42.594;23.414;2022-07-29T22:32:08;94606.50;;;21.27;66.76
42705;BME280;28342;42.594;23.414;2022-07-29T22:34:38;94620.47;;;21.36;66.88
42705;BME280;28342;42.594;23.414;2022-07-29T22:37:05;94606.34;;;21.12;67.46
42705;BME280;28342;42.594;23.414;2022-07-29T22:39:30;94619.53;;;21.21;67.68
42705;BME280;28342;42.594;23.414;2022-07-29T22:41:56;94591.09;;;20.90;68.33
42705;BME280;28342;42.594;23.414;2022-07-29T22:44:25;94613.16;;;20.99;68.24
42705;BME280;28342;42.594;23.414;2022-07-29T22:46:56;94613.22;;;21.06;68.19
42705;BME280;28342;42.594;23.414;2022-07-29T22:49:25;94591.44;;;20.85;68.39
42705;BME280;28342;42.594;23.414;2022-07-29T22:51:52;94627.09;;;21.05;69.17
42705;BME280;28342;42.594;23.414;2022-07-29T22:54:19;94590.56;;;20.74;68.38
42705;BME280;28342;42.594;23.414;2022-07-29T22:56:47;94615.38;;;20.90;68.85
42705;BME280;28342;42.594;23.414;2022-07-29T22:59:17;94630.91;;;21.00;68.39
42705;BME280;28342;42.594;23.414;2022-07-29T23:01:43;94582.88;;;20.76;66.28
42705;BME280;28342;42.594;23.414;2022-07-29T23:04:09;94587.53;;;20.79;66.17
42705;BME280;28342;42.594;23.414;2022-07-29T23:06:34;94595.97;;;20.77;66.38
42705;BME280;28342;42.594;23.414;2022-07-29T23:09:08;94614.63;;;20.93;67.07
42705;BME280;28342;42.594;23.414;2022-07-29T23:11:34;94625.50;;;21.00;67.23
42705;BME280;28342;42.594;23.414;2022-07-29T23:14:01;94589.41;;;20.75;65.75
42705;BME280;28342;42.594;23.414;2022-07-29T23:16:29;94594.06;;;20.78;66.18
42705;BME280;28342;42.594;23.414;2022-07-29T23:18:55;94589.81;;;20.77;66.06
42705;BME280;28342;42.594;23.414;2022-07-29T23:21:26;94594.00;;;20.71;65.12
42705;BME280;28342;42.594;23.414;2022-07-29T23:23:53;94610.78;;;20.94;64.74
42705;BME280;28342;42.594;23.414;2022-07-29T23:26:20;94602.28;;;20.92;64.43
42705;BME280;28342;42.594;23.414;2022-07-29T23:28:56;94592.91;;;20.79;64.92
42705;BME280;28342;42.594;23.414;2022-07-29T23:31:22;94591.44;;;20.85;64.63
42705;BME280;28342;42.594;23.414;2022-07-29T23:33:49;94599.13;;;20.83;64.77
42705;BME280;28342;42.594;23.414;2022-07-29T23:36:17;94618.91;;;20.98;65.27
42705;BME280;28342;42.594;23.414;2022-07-29T23:38:46;94615.00;;;20.92;64.93
42705;BME280;28342;42.594;23.414;2022-07-29T23:41:14;94617.72;;;20.95;65.03
42705;BME280;28342;42.594;23.414;2022-07-29T23:43:44;94630.13;;;21.00;64.08
42705;BME280;28342;42.594;23.414;2022-07-29T23:46:14;94623.22;;;21.02;64.41
42705;BME280;28342;42.594;23.414;2022-07-29T23:48:40;94628.63;;;21.06;64.74
42705;BME280;28342;42.594;23.414;2022-07-29T23:51:06;94625.50;;;21.00;64.68
42705;BME280;28342;42.594;23.414;2022-07-29T23:53:35;94623.19;;;20.99;63.71
42705;BME280;28342;42.594;23.414;2022-07-29T23:56:05;94628.59;;;21.02;64.34
42705;BME280;28342;42.594;23.414;2022-07-29T23:58:31;94624.00;;;21.06;64.23
